sensor_id;sensor_type;location;lat;lon;timestamp;temperature;humidity
76040;SHT30;64736;50.462;4.850;2023-04-01T00:02:04;8.78;92.10
76040;SHT30;64736;50.462;4.850;2023-04-01T00:04:29;8.78;92.27
76040;SHT30;64736;50.462;4.850;2023-04-01T00:06:55;8.77;92.41
76040;SHT30;64736;50.462;4.850;2023-04-01T00:09:22;8.75;92.48
76040;SHT30;64736;50.462;4.850;2023-04-01T00:11:48;8.75;92.47
76040;SHT30;64736;50.462;4.850;2023-04-01T00:14:13;8.78;92.60
76040;SHT30;64736;50.462;4.850;2023-04-01T00:16:39;8.75;92.75
76040;SHT30;64736;50.462;4.850;2023-04-01T00:19:05;8.72;92.85
76040;SHT30;64736;50.462;4.850;2023-04-01T00:21:31;8.71;92.98
76040;SHT30;64736;50.462;4.850;2023-04-01T00:23:57;8.67;93.16
76040;SHT30;64736;50.462;4.850;2023-04-01T00:26:23;8.68;93.30
76040;SHT30;64736;50.462;4.850;2023-04-01T00:28:50;8.68;93.31
76040;SHT30;64736;50.462;4.850;2023-04-01T00:31:15;8.70;93.35
76040;SHT30;64736;50.462;4.850;2023-04-01T00:33:41;8.71;93.41
76040;SHT30;64736;50.462;4.850;2023-04-01T00:36:15;8.68;93.46
76040;SHT30;64736;50.462;4.850;2023-04-01T00:38:41;8.65;93.46
76040;SHT30;64736;50.462;4.850;2023-04-01T00:41:08;8.64;93.56
76040;SHT30;64736;50.462;4.850;2023-04-01T00:43:41;8.63;93.52
76040;SHT30;64736;50.462;4.850;2023-04-01T00:46:07;8.64;93.68
76040;SHT30;64736;50.462;4.850;2023-04-01T00:48:36;8.61;93.72
76040;SHT30;64736;50.462;4.850;2023-04-01T00:53:38;8.57;93.79
76040;SHT30;64736;50.462;4.850;2023-04-01T00:56:10;8.56;93.84
76040;SHT30;64736;50.462;4.850;2023-04-01T00:58:42;8.56;93.89
76040;SHT30;64736;50.462;4.850;2023-04-01T01:01:09;8.54;93.91
76040;SHT30;64736;50.462;4.850;2023-04-01T01:03:36;8.50;93.89
76040;SHT30;64736;50.462;4.850;2023-04-01T01:12:11;8.50;93.96
76040;SHT30;64736;50.462;4.850;2023-04-01T01:15:08;8.49;93.99
76040;SHT30;64736;50.462;4.850;2023-04-01T01:37:11;8.54;94.17
76040;SHT30;64736;50.462;4.850;2023-04-01T01:39:39;8.49;94.16
76040;SHT30;64736;50.462;4.850;2023-04-01T01:42:09;8.50;94.12
76040;SHT30;64736;50.462;4.850;2023-04-01T01:44:36;8.51;94.09
76040;SHT30;64736;50.462;4.850;2023-04-01T01:47:03;8.51;94.04
76040;SHT30;64736;50.462;4.850;2023-04-01T01:49:30;8.53;94.04
76040;SHT30;64736;50.462;4.850;2023-04-01T01:51:57;8.53;94.04
76040;SHT30;64736;50.462;4.850;2023-04-01T01:54:23;8.51;94.01
76040;SHT30;64736;50.462;4.850;2023-04-01T01:56:51;8.51;94.04
76040;SHT30;64736;50.462;4.850;2023-04-01T01:59:22;8.53;94.07
76040;SHT30;64736;50.462;4.850;2023-04-01T02:01:53;8.50;94.04
76040;SHT30;64736;50.462;4.850;2023-04-01T02:04:21;8.54;94.09
76040;SHT30;64736;50.462;4.850;2023-04-01T02:06:59;8.51;94.07
76040;SHT30;64736;50.462;4.850;2023-04-01T02:09:27;8.47;94.05
76040;SHT30;64736;50.462;4.850;2023-04-01T02:12:00;8.51;94.06
76040;SHT30;64736;50.462;4.850;2023-04-01T02:14:33;8.53;94.07
76040;SHT30;64736;50.462;4.850;2023-04-01T02:17:15;8.53;94.07
76040;SHT30;64736;50.462;4.850;2023-04-01T02:19:51;8.50;94.08
76040;SHT30;64736;50.462;4.850;2023-04-01T02:22:24;8.56;94.13
76040;SHT30;64736;50.462;4.850;2023-04-01T02:24:53;8.49;94.11
76040;SHT30;64736;50.462;4.850;2023-04-01T02:27:20;8.57;94.08
76040;SHT30;64736;50.462;4.850;2023-04-01T02:29:46;8.57;94.09
76040;SHT30;64736;50.462;4.850;2023-04-01T02:32:13;8.54;94.19
76040;SHT30;64736;50.462;4.850;2023-04-01T02:34:39;8.57;94.22
76040;SHT30;64736;50.462;4.850;2023-04-01T02:37:05;8.60;94.24
76040;SHT30;64736;50.462;4.850;2023-04-01T02:39:31;8.56;94.27
76040;SHT30;64736;50.462;4.850;2023-04-01T02:41:57;8.60;94.31
76040;SHT30;64736;50.462;4.850;2023-04-01T02:44:23;8.63;94.34
76040;SHT30;64736;50.462;4.850;2023-04-01T02:46:48;8.64;94.38
76040;SHT30;64736;50.462;4.850;2023-04-01T02:49:14;8.64;94.40
76040;SHT30;64736;50.462;4.850;2023-04-01T02:51:40;8.67;94.40
76040;SHT30;64736;50.462;4.850;2023-04-01T02:54:06;8.68;94.43
76040;SHT30;64736;50.462;4.850;2023-04-01T02:56:32;8.70;94.48
76040;SHT30;64736;50.462;4.850;2023-04-01T02:58:57;8.67;94.51
76040;SHT30;64736;50.462;4.850;2023-04-01T03:01:23;8.72;94.59
76040;SHT30;64736;50.462;4.850;2023-04-01T03:03:49;8.70;94.62
76040;SHT30;64736;50.462;4.850;2023-04-01T03:06:16;8.70;94.67
76040;SHT30;64736;50.462;4.850;2023-04-01T03:08:42;8.72;94.74
76040;SHT30;64736;50.462;4.850;2023-04-01T03:11:09;8.74;94.79
76040;SHT30;64736;50.462;4.850;2023-04-01T03:13:36;8.74;94.83
76040;SHT30;64736;50.462;4.850;2023-04-01T03:16:02;8.74;94.90
76040;SHT30;64736;50.462;4.850;2023-04-01T03:18:28;8.71;94.88
76040;SHT30;64736;50.462;4.850;2023-04-01T03:20:53;8.75;94.90
76040;SHT30;64736;50.462;4.850;2023-04-01T03:23:19;8.74;94.90
76040;SHT30;64736;50.462;4.850;2023-04-01T03:25:47;8.74;94.90
76040;SHT30;64736;50.462;4.850;2023-04-01T03:28:13;8.77;94.93
76040;SHT30;64736;50.462;4.850;2023-04-01T03:30:40;8.77;94.94
76040;SHT30;64736;50.462;4.850;2023-04-01T03:33:06;8.78;94.94
76040;SHT30;64736;50.462;4.850;2023-04-01T03:35:32;8.71;94.93
76040;SHT30;64736;50.462;4.850;2023-04-01T03:37:58;8.77;94.92
76040;SHT30;64736;50.462;4.850;2023-04-01T03:40:24;8.74;94.97
76040;SHT30;64736;50.462;4.850;2023-04-01T03:42:51;8.70;94.95
76040;SHT30;64736;50.462;4.850;2023-04-01T03:45:18;8.75;94.99
76040;SHT30;64736;50.462;4.850;2023-04-01T03:47:44;8.72;95.02
76040;SHT30;64736;50.462;4.850;2023-04-01T03:50:10;8.75;95.07
76040;SHT30;64736;50.462;4.850;2023-04-01T03:52:36;8.71;95.08
76040;SHT30;64736;50.462;4.850;2023-04-01T03:55:02;8.68;95.10
76040;SHT30;64736;50.462;4.850;2023-04-01T03:57:31;8.61;95.14
76040;SHT30;64736;50.462;4.850;2023-04-01T03:59:57;8.72;95.18
76040;SHT30;64736;50.462;4.850;2023-04-01T04:02:22;8.70;95.20
76040;SHT30;64736;50.462;4.850;2023-04-01T04:04:48;8.67;95.19
76040;SHT30;64736;50.462;4.850;2023-04-01T04:07:14;8.64;95.19
76040;SHT30;64736;50.462;4.850;2023-04-01T04:09:40;8.53;95.21
76040;SHT30;64736;50.462;4.850;2023-04-01T04:12:06;8.54;95.10
76040;SHT30;64736;50.462;4.850;2023-04-01T04:14:32;8.68;95.00
76040;SHT30;64736;50.462;4.850;2023-04-01T04:16:58;8.70;94.94
76040;SHT30;64736;50.462;4.850;2023-04-01T04:19:24;8.67;94.96
76040;SHT30;64736;50.462;4.850;2023-04-01T04:21:49;8.71;94.92
76040;SHT30;64736;50.462;4.850;2023-04-01T04:24:15;8.70;94.95
76040;SHT30;64736;50.462;4.850;2023-04-01T04:26:41;8.68;94.98
76040;SHT30;64736;50.462;4.850;2023-04-01T04:29:07;8.68;94.98
76040;SHT30;64736;50.462;4.850;2023-04-01T04:31:33;8.64;95.00
76040;SHT30;64736;50.462;4.850;2023-04-01T04:33:59;8.67;95.00
76040;SHT30;64736;50.462;4.850;2023-04-01T04:36:26;8.68;94.97
76040;SHT30;64736;50.462;4.850;2023-04-01T04:38:52;8.65;95.01
76040;SHT30;64736;50.462;4.850;2023-04-01T04:41:19;8.61;95.01
76040;SHT30;64736;50.462;4.850;2023-04-01T04:43:54;8.51;94.97
76040;SHT30;64736;50.462;4.850;2023-04-01T04:46:21;8.59;94.92
76040;SHT30;64736;50.462;4.850;2023-04-01T04:48:48;8.57;94.93
76040;SHT30;64736;50.462;4.850;2023-04-01T04:51:19;8.53;94.80
76040;SHT30;64736;50.462;4.850;2023-04-01T04:53:45;8.50;94.74
76040;SHT30;64736;50.462;4.850;2023-04-01T04:56:11;8.50;94.50
76040;SHT30;64736;50.462;4.850;2023-04-01T04:58:38;8.47;94.43
76040;SHT30;64736;50.462;4.850;2023-04-01T05:01:12;8.51;94.43
76040;SHT30;64736;50.462;4.850;2023-04-01T05:03:38;8.49;94.43
76040;SHT30;64736;50.462;4.850;2023-04-01T05:06:05;8.49;94.44
76040;SHT30;64736;50.462;4.850;2023-04-01T05:08:31;8.47;94.43
76040;SHT30;64736;50.462;4.850;2023-04-01T05:10:58;8.50;94.38
76040;SHT30;64736;50.462;4.850;2023-04-01T05:13:24;8.53;94.46
76040;SHT30;64736;50.462;4.850;2023-04-01T05:15:50;8.50;94.49
76040;SHT30;64736;50.462;4.850;2023-04-01T05:18:16;8.41;94.40
76040;SHT30;64736;50.462;4.850;2023-04-01T05:20:50;8.54;94.49
76040;SHT30;64736;50.462;4.850;2023-04-01T05:23:17;8.51;94.58
76040;SHT30;64736;50.462;4.850;2023-04-01T05:25:44;8.49;94.52
76040;SHT30;64736;50.462;4.850;2023-04-01T05:28:11;8.37;94.53
76040;SHT30;64736;50.462;4.850;2023-04-01T05:30:37;8.51;94.51
76040;SHT30;64736;50.462;4.850;2023-04-01T05:33:08;8.41;94.51
76040;SHT30;64736;50.462;4.850;2023-04-01T05:35:34;8.56;94.54
76040;SHT30;64736;50.462;4.850;2023-04-01T05:37:59;8.57;94.60
76040;SHT30;64736;50.462;4.850;2023-04-01T05:40:25;8.56;94.68
76040;SHT30;64736;50.462;4.850;2023-04-01T05:42:51;8.53;94.80
76040;SHT30;64736;50.462;4.850;2023-04-01T05:45:16;8.53;94.86
76040;SHT30;64736;50.462;4.850;2023-04-01T05:47:42;8.50;94.90
76040;SHT30;64736;50.462;4.850;2023-04-01T05:50:09;8.51;94.92
76040;SHT30;64736;50.462;4.850;2023-04-01T05:52:37;8.56;94.91
76040;SHT30;64736;50.462;4.850;2023-04-01T05:55:03;8.54;94.97
76040;SHT30;64736;50.462;4.850;2023-04-01T05:57:29;8.56;95.00
76040;SHT30;64736;50.462;4.850;2023-04-01T05:59:55;8.57;95.03
76040;SHT30;64736;50.462;4.850;2023-04-01T06:02:21;8.61;95.09
76040;SHT30;64736;50.462;4.850;2023-04-01T06:04:47;8.59;95.14
76040;SHT30;64736;50.462;4.850;2023-04-01T06:07:14;8.57;95.16
76040;SHT30;64736;50.462;4.850;2023-04-01T06:09:41;8.60;95.15
76040;SHT30;64736;50.462;4.850;2023-04-01T06:12:55;8.61;95.20
76040;SHT30;64736;50.462;4.850;2023-04-01T06:15:36;8.54;95.20
76040;SHT30;64736;50.462;4.850;2023-04-01T06:29:26;8.61;95.18
76040;SHT30;64736;50.462;4.850;2023-04-01T06:32:15;8.63;95.13
76040;SHT30;64736;50.462;4.850;2023-04-01T06:49:26;8.59;93.97
76040;SHT30;64736;50.462;4.850;2023-04-01T06:52:26;8.56;92.65
76040;SHT30;64736;50.462;4.850;2023-04-01T06:55:09;8.65;93.09
76040;SHT30;64736;50.462;4.850;2023-04-01T06:57:47;8.71;93.06
76040;SHT30;64736;50.462;4.850;2023-04-01T07:03:22;8.74;93.88
76040;SHT30;64736;50.462;4.850;2023-04-01T07:05:49;8.82;94.04
76040;SHT30;64736;50.462;4.850;2023-04-01T07:08:23;8.85;94.12
76040;SHT30;64736;50.462;4.850;2023-04-01T07:13:34;9.01;94.07
76040;SHT30;64736;50.462;4.850;2023-04-01T07:16:14;9.09;94.02
76040;SHT30;64736;50.462;4.850;2023-04-01T07:24:06;9.05;93.79
76040;SHT30;64736;50.462;4.850;2023-04-01T07:26:35;8.84;93.25
76040;SHT30;64736;50.462;4.850;2023-04-01T07:29:00;9.09;92.86
76040;SHT30;64736;50.462;4.850;2023-04-01T07:34:25;9.15;92.75
76040;SHT30;64736;50.462;4.850;2023-04-01T07:37:09;9.11;92.28
76040;SHT30;64736;50.462;4.850;2023-04-01T07:45:15;9.02;91.89
76040;SHT30;64736;50.462;4.850;2023-04-01T07:48:03;9.08;92.12
76040;SHT30;64736;50.462;4.850;2023-04-01T07:50:39;9.16;92.23
76040;SHT30;64736;50.462;4.850;2023-04-01T07:53:28;8.99;91.09
76040;SHT30;64736;50.462;4.850;2023-04-01T08:01:39;9.23;91.09
76040;SHT30;64736;50.462;4.850;2023-04-01T08:09:40;9.19;90.13
76040;SHT30;64736;50.462;4.850;2023-04-01T08:12:32;9.33;90.10
76040;SHT30;64736;50.462;4.850;2023-04-01T08:15:12;9.28;90.86
76040;SHT30;64736;50.462;4.850;2023-04-01T08:17:52;9.39;91.24
76040;SHT30;64736;50.462;4.850;2023-04-01T08:20:34;9.23;91.21
76040;SHT30;64736;50.462;4.850;2023-04-01T08:23:10;9.23;91.52
76040;SHT30;64736;50.462;4.850;2023-04-01T08:25:40;9.19;91.49
76040;SHT30;64736;50.462;4.850;2023-04-01T08:30:56;9.29;89.21
76040;SHT30;64736;50.462;4.850;2023-04-01T08:33:27;9.39;89.96
76040;SHT30;64736;50.462;4.850;2023-04-01T08:38:54;9.57;89.77
76040;SHT30;64736;50.462;4.850;2023-04-01T08:44:23;9.43;90.43
76040;SHT30;64736;50.462;4.850;2023-04-01T08:49:56;9.43;90.41
76040;SHT30;64736;50.462;4.850;2023-04-01T08:52:49;9.32;90.52
76040;SHT30;64736;50.462;4.850;2023-04-01T09:06:21;9.42;90.65
76040;SHT30;64736;50.462;4.850;2023-04-01T09:20:17;9.39;91.39
76040;SHT30;64736;50.462;4.850;2023-04-01T09:23:15;9.44;91.17
76040;SHT30;64736;50.462;4.850;2023-04-01T09:32:07;9.47;90.42
76040;SHT30;64736;50.462;4.850;2023-04-01T09:34:53;9.58;90.71
76040;SHT30;64736;50.462;4.850;2023-04-01T09:37:29;9.61;90.45
76040;SHT30;64736;50.462;4.850;2023-04-01T09:51:26;9.84;88.58
76040;SHT30;64736;50.462;4.850;2023-04-01T09:54:01;9.88;88.33
76040;SHT30;64736;50.462;4.850;2023-04-01T10:02:19;9.70;90.15
76040;SHT30;64736;50.462;4.850;2023-04-01T10:08:14;9.85;89.74
76040;SHT30;64736;50.462;4.850;2023-04-01T10:10:52;10.06;89.39
76040;SHT30;64736;50.462;4.850;2023-04-01T10:19:03;9.95;86.78
76040;SHT30;64736;50.462;4.850;2023-04-01T10:27:33;10.02;85.67
76040;SHT30;64736;50.462;4.850;2023-04-01T10:36:13;9.97;88.34
76040;SHT30;64736;50.462;4.850;2023-04-01T10:38:59;10.12;88.19
76040;SHT30;64736;50.462;4.850;2023-04-01T10:52:53;10.06;85.10
76040;SHT30;64736;50.462;4.850;2023-04-01T10:58:48;10.12;88.10
76040;SHT30;64736;50.462;4.850;2023-04-01T11:01:36;9.84;87.23
76040;SHT30;64736;50.462;4.850;2023-04-01T11:04:44;10.02;87.71
76040;SHT30;64736;50.462;4.850;2023-04-01T11:10:54;10.39;88.46
76040;SHT30;64736;50.462;4.850;2023-04-01T11:16:06;10.12;88.51
76040;SHT30;64736;50.462;4.850;2023-04-01T11:30:59;10.38;84.99
76040;SHT30;64736;50.462;4.850;2023-04-01T11:33:03;10.52;86.32
76040;SHT30;64736;50.462;4.850;2023-04-01T11:35:42;10.25;84.66
76040;SHT30;64736;50.462;4.850;2023-04-01T11:44:17;11.18;81.88
76040;SHT30;64736;50.462;4.850;2023-04-01T11:52:21;10.90;82.88
76040;SHT30;64736;50.462;4.850;2023-04-01T11:57:46;10.73;81.88
76040;SHT30;64736;50.462;4.850;2023-04-01T12:00:47;10.60;83.67
76040;SHT30;64736;50.462;4.850;2023-04-01T12:09:34;11.00;81.35
76040;SHT30;64736;50.462;4.850;2023-04-01T12:12:32;10.93;81.49
76040;SHT30;64736;50.462;4.850;2023-04-01T12:18:16;10.45;81.93
76040;SHT30;64736;50.462;4.850;2023-04-01T12:21:05;10.70;83.41
76040;SHT30;64736;50.462;4.850;2023-04-01T12:26:40;10.93;81.31
76040;SHT30;64736;50.462;4.850;2023-04-01T12:52:19;11.31;79.12
76040;SHT30;64736;50.462;4.850;2023-04-01T12:55:18;11.12;79.41
76040;SHT30;64736;50.462;4.850;2023-04-01T12:58:36;10.98;78.85
76040;SHT30;64736;50.462;4.850;2023-04-01T13:01:13;11.70;78.13
76040;SHT30;64736;50.462;4.850;2023-04-01T13:09:38;12.16;75.24
76040;SHT30;64736;50.462;4.850;2023-04-01T13:23:14;11.45;80.17
76040;SHT30;64736;50.462;4.850;2023-04-01T13:26:12;11.07;81.85
76040;SHT30;64736;50.462;4.850;2023-04-01T13:42:53;11.14;79.87
76040;SHT30;64736;50.462;4.850;2023-04-01T13:45:49;11.10;79.54
76040;SHT30;64736;50.462;4.850;2023-04-01T13:48:36;11.54;78.09
76040;SHT30;64736;50.462;4.850;2023-04-01T13:59:56;11.19;82.36
76040;SHT30;64736;50.462;4.850;2023-04-01T14:05:09;10.87;80.65
76040;SHT30;64736;50.462;4.850;2023-04-01T14:16:13;11.17;78.82
76040;SHT30;64736;50.462;4.850;2023-04-01T14:24:15;10.83;79.02
76040;SHT30;64736;50.462;4.850;2023-04-01T14:29:39;10.50;80.29
76040;SHT30;64736;50.462;4.850;2023-04-01T14:40:27;10.85;78.68
76040;SHT30;64736;50.462;4.850;2023-04-01T14:43:20;10.70;78.74
76040;SHT30;64736;50.462;4.850;2023-04-01T14:46:12;10.89;77.65
76040;SHT30;64736;50.462;4.850;2023-04-01T14:48:50;10.80;77.87
76040;SHT30;64736;50.462;4.850;2023-04-01T14:51:38;10.43;78.66
76040;SHT30;64736;50.462;4.850;2023-04-01T14:54:05;10.70;79.78
76040;SHT30;64736;50.462;4.850;2023-04-01T14:56:48;10.70;78.66
76040;SHT30;64736;50.462;4.850;2023-04-01T14:59:27;10.57;80.62
76040;SHT30;64736;50.462;4.850;2023-04-01T15:02:11;10.08;80.67
76040;SHT30;64736;50.462;4.850;2023-04-01T15:10:58;10.04;84.87
76040;SHT30;64736;50.462;4.850;2023-04-01T15:19:10;9.53;85.96
76040;SHT30;64736;50.462;4.850;2023-04-01T15:22:04;9.83;86.02
76040;SHT30;64736;50.462;4.850;2023-04-01T15:24:47;9.90;85.17
76040;SHT30;64736;50.462;4.850;2023-04-01T15:36:13;9.77;88.46
76040;SHT30;64736;50.462;4.850;2023-04-01T15:48:13;9.60;89.91
76040;SHT30;64736;50.462;4.850;2023-04-01T15:54:32;9.51;88.20
76040;SHT30;64736;50.462;4.850;2023-04-01T16:11:45;9.50;88.79
76040;SHT30;64736;50.462;4.850;2023-04-01T16:17:33;9.26;89.82
76040;SHT30;64736;50.462;4.850;2023-04-01T16:20:27;9.20;90.71
76040;SHT30;64736;50.462;4.850;2023-04-01T16:23:26;8.97;89.95
76040;SHT30;64736;50.462;4.850;2023-04-01T16:26:42;9.23;90.19
76040;SHT30;64736;50.462;4.850;2023-04-01T16:29:24;9.01;90.19
76040;SHT30;64736;50.462;4.850;2023-04-01T16:37:59;8.92;90.15
76040;SHT30;64736;50.462;4.850;2023-04-01T16:40:50;8.93;90.53
76040;SHT30;64736;50.462;4.850;2023-04-01T16:43:38;8.95;90.94
76040;SHT30;64736;50.462;4.850;2023-04-01T16:46:27;8.95;90.27
76040;SHT30;64736;50.462;4.850;2023-04-01T16:54:44;8.99;90.02
76040;SHT30;64736;50.462;4.850;2023-04-01T16:57:18;8.97;89.22
76040;SHT30;64736;50.462;4.850;2023-04-01T16:59:50;8.93;90.14
76040;SHT30;64736;50.462;4.850;2023-04-01T17:02:26;9.02;90.55
76040;SHT30;64736;50.462;4.850;2023-04-01T17:05:03;8.78;89.91
76040;SHT30;64736;50.462;4.850;2023-04-01T17:13:21;8.89;89.50
76040;SHT30;64736;50.462;4.850;2023-04-01T17:15:57;8.91;90.24
76040;SHT30;64736;50.462;4.850;2023-04-01T17:18:49;8.84;90.36
76040;SHT30;64736;50.462;4.850;2023-04-01T17:21:25;8.78;89.88
76040;SHT30;64736;50.462;4.850;2023-04-01T17:29:25;8.59;89.85
76040;SHT30;64736;50.462;4.850;2023-04-01T17:32:06;8.61;90.11
76040;SHT30;64736;50.462;4.850;2023-04-01T17:45:53;8.47;91.25
76040;SHT30;64736;50.462;4.850;2023-04-01T18:10:51;8.41;90.42
76040;SHT30;64736;50.462;4.850;2023-04-01T18:13:44;8.28;90.09
76040;SHT30;64736;50.462;4.850;2023-04-01T18:16:35;8.43;89.08
76040;SHT30;64736;50.462;4.850;2023-04-01T18:19:27;8.41;89.94
76040;SHT30;64736;50.462;4.850;2023-04-01T18:22:10;8.53;90.21
76040;SHT30;64736;50.462;4.850;2023-04-01T18:24:43;8.46;90.48
76040;SHT30;64736;50.462;4.850;2023-04-01T18:27:18;8.32;89.83
76040;SHT30;64736;50.462;4.850;2023-04-01T18:29:54;8.37;89.98
76040;SHT30;64736;50.462;4.850;2023-04-01T18:40:48;8.39;90.82
76040;SHT30;64736;50.462;4.850;2023-04-01T18:51:46;8.26;90.74
76040;SHT30;64736;50.462;4.850;2023-04-01T18:54:33;8.39;91.13
76040;SHT30;64736;50.462;4.850;2023-04-01T18:57:18;8.28;91.27
76040;SHT30;64736;50.462;4.850;2023-04-01T19:00:14;8.37;91.37
76040;SHT30;64736;50.462;4.850;2023-04-01T19:02:40;8.32;91.45
76040;SHT30;64736;50.462;4.850;2023-04-01T19:05:29;8.32;91.72
76040;SHT30;64736;50.462;4.850;2023-04-01T19:08:25;8.32;91.94
76040;SHT30;64736;50.462;4.850;2023-04-01T19:22:55;8.16;92.57
76040;SHT30;64736;50.462;4.850;2023-04-01T19:25:43;8.26;92.80
76040;SHT30;64736;50.462;4.850;2023-04-01T19:36:32;8.25;93.10
76040;SHT30;64736;50.462;4.850;2023-04-01T19:42:35;8.22;93.28
76040;SHT30;64736;50.462;4.850;2023-04-01T19:45:23;8.26;93.37
76040;SHT30;64736;50.462;4.850;2023-04-01T19:50:49;8.14;93.38
76040;SHT30;64736;50.462;4.850;2023-04-01T19:54:12;8.22;93.48
76040;SHT30;64736;50.462;4.850;2023-04-01T19:56:57;8.23;93.48
76040;SHT30;64736;50.462;4.850;2023-04-01T20:02:43;8.19;93.67
76040;SHT30;64736;50.462;4.850;2023-04-01T20:05:35;8.17;93.75
76040;SHT30;64736;50.462;4.850;2023-04-01T20:13:46;8.23;93.83
76040;SHT30;64736;50.462;4.850;2023-04-01T20:16:14;8.22;93.90
76040;SHT30;64736;50.462;4.850;2023-04-01T20:18:58;8.22;93.84
76040;SHT30;64736;50.462;4.850;2023-04-01T20:21:40;8.22;93.84
76040;SHT30;64736;50.462;4.850;2023-04-01T20:24:19;8.07;93.89
76040;SHT30;64736;50.462;4.850;2023-04-01T20:26:50;8.19;93.93
76040;SHT30;64736;50.462;4.850;2023-04-01T20:34:44;8.20;93.97
76040;SHT30;64736;50.462;4.850;2023-04-01T20:41:20;8.26;93.99
76040;SHT30;64736;50.462;4.850;2023-04-01T20:46:16;8.32;94.02
76040;SHT30;64736;50.462;4.850;2023-04-01T20:52:43;8.17;93.51
76040;SHT30;64736;50.462;4.850;2023-04-01T20:54:42;8.09;93.34
76040;SHT30;64736;50.462;4.850;2023-04-01T20:57:36;8.05;93.03
76040;SHT30;64736;50.462;4.850;2023-04-01T21:00:34;8.12;92.94
76040;SHT30;64736;50.462;4.850;2023-04-01T21:03:12;8.09;92.94
76040;SHT30;64736;50.462;4.850;2023-04-01T21:08:51;8.25;92.96
76040;SHT30;64736;50.462;4.850;2023-04-01T21:22:53;8.28;93.03
76040;SHT30;64736;50.462;4.850;2023-04-01T21:39:42;8.17;93.53
76040;SHT30;64736;50.462;4.850;2023-04-01T21:42:28;8.20;93.62
76040;SHT30;64736;50.462;4.850;2023-04-01T22:02:12;8.19;93.76
76040;SHT30;64736;50.462;4.850;2023-04-01T22:07:24;8.28;93.76
76040;SHT30;64736;50.462;4.850;2023-04-01T22:18:25;8.23;93.91
76040;SHT30;64736;50.462;4.850;2023-04-01T22:21:07;8.09;93.71
76040;SHT30;64736;50.462;4.850;2023-04-01T22:23:53;8.33;93.61
76040;SHT30;64736;50.462;4.850;2023-04-01T22:29:23;8.22;93.65
76040;SHT30;64736;50.462;4.850;2023-04-01T22:32:09;8.13;93.66
76040;SHT30;64736;50.462;4.850;2023-04-01T22:34:51;8.40;93.76
76040;SHT30;64736;50.462;4.850;2023-04-01T22:43:13;8.51;93.96
76040;SHT30;64736;50.462;4.850;2023-04-01T22:46:03;8.33;93.90
76040;SHT30;64736;50.462;4.850;2023-04-01T22:48:47;8.16;93.83
76040;SHT30;64736;50.462;4.850;2023-04-01T22:51:47;8.23;93.90
76040;SHT30;64736;50.462;4.850;2023-04-01T22:54:25;8.47;94.00
76040;SHT30;64736;50.462;4.850;2023-04-01T23:00:12;8.49;94.05
76040;SHT30;64736;50.462;4.850;2023-04-01T23:02:46;8.57;93.99
76040;SHT30;64736;50.462;4.850;2023-04-01T23:05:17;8.50;94.02
76040;SHT30;64736;50.462;4.850;2023-04-01T23:12:51;8.37;93.89
76040;SHT30;64736;50.462;4.850;2023-04-01T23:15:20;8.53;93.92
76040;SHT30;64736;50.462;4.850;2023-04-01T23:23:10;8.71;93.94
76040;SHT30;64736;50.462;4.850;2023-04-01T23:28:50;8.40;93.91
76040;SHT30;64736;50.462;4.850;2023-04-01T23:31:35;8.43;93.98
76040;SHT30;64736;50.462;4.850;2023-04-01T23:37:17;8.41;94.19
76040;SHT30;64736;50.462;4.850;2023-04-01T23:39:46;8.41;94.31
76040;SHT30;64736;50.462;4.850;2023-04-01T23:42:13;8.44;94.39
76040;SHT30;64736;50.462;4.850;2023-04-01T23:44:40;8.47;94.50
76040;SHT30;64736;50.462;4.850;2023-04-01T23:47:12;8.44;94.47
76040;SHT30;64736;50.462;4.850;2023-04-01T23:49:46;8.49;94.78
76040;SHT30;64736;50.462;4.850;2023-04-01T23:52:31;8.47;95.03
76040;SHT30;64736;50.462;4.850;2023-04-01T23:57:41;8.43;96.14
